Airfield :
LOGIN :

Register | Disclaimer

   EN    FR    IT 

 










Legend :    VFR   Marginal VFR   IFR   Intensive IFR   Very Intensive IFR
Visi :
Ceiling :
>= 8 km
>= 3000ft
5 to 8 km
1000 to 3000 ft
1500m to 5 km
500 to 1000 ft
800 to 1500m
200 to 500 ft
< 800m
< 200 ft
Symbols :   Thunderstorms  Fog  Heavy snow  Heavy precipitations  Wind > 20 kt
SIGMETs :     Misc.  Thunderstorms  Icing  Turbulence  Mountain Waves  Volcanic Ashes







- Airport Elevation : 183 ft
- IATA code : HAJ


EDDV - Hanover/Langenhagen Int.

EXPIRED METARs :
  • 241420Z 26010KT 220V290 9999 SCT025 BKN028 19/13 Q1013 TEMPO 25015G25KT
  • 241350Z 25013KT 210V270 9999 FEW025 BKN028 19/13 Q1013 TEMPO 25015G25KT
  • 241320Z 25013G23KT 220V280 9999 SCT028 BKN032 19/13 Q1013 NOSIG
  • 241250Z 24013KT 220V280 9999 SCT028 BKN032 20/13 Q1012 TEMPO 25015G25KT
  • 241220Z 25014KT 200V290 9999 SCT028 BKN031 20/13 Q1012 TEMPO 25015G25KT
  • 241150Z 24014G25KT 210V270 9999 SCT025 BKN029 20/13 Q1012 NOSIG

TAF TAF EDDV
Valid from the 24 at 12:00 until the 25 at 12:00 UTC


241100Z 2412/2512 25012KT 9999 BKN035
TEMPO 2412/2414 25015G25KT
BECMG 2416/2418 25007KT
TEMPO 2502/2508 4500 RADZ BKN006
No reported NOTAMs for that airfield.



MET'MAP, your aeronautical weather chart ! - Copyright ORBIFLY December 2007 - Disclaimer

ORBIFLY MET'MAP TEAM :

Programming & Development : Alexandra Zaïnal
Concept & Development : Baudouin d'Aumeries
Co-Development & Prog : Marc-Olivier Méhu
Technical & hardware support : Manuel Goepfert

Contact : metmap@orbifly.com




SOURCES & CREDITS :

   NOAA